sensor_id;sensor_type;location;lat;lon;timestamp;pressure;altitude;pressure_sealevel;temperature;humidity
29197;BME280;62796;42.654;23.316;2022-10-22T00:01:40;95377.44;;;11.59;58.37
29197;BME280;62796;42.654;23.316;2022-10-22T00:04:05;95387.59;;;11.62;58.50
29197;BME280;62796;42.654;23.316;2022-10-22T00:06:31;95390.50;;;11.61;58.85
29197;BME280;62796;42.654;23.316;2022-10-22T00:08:56;95382.72;;;11.54;59.05
29197;BME280;62796;42.654;23.316;2022-10-22T00:11:22;95388.50;;;11.51;59.05
29197;BME280;62796;42.654;23.316;2022-10-22T00:13:47;95389.28;;;11.46;59.23
29197;BME280;62796;42.654;23.316;2022-10-22T00:16:13;95385.06;;;11.50;59.06
29197;BME280;62796;42.654;23.316;2022-10-22T00:18:39;95390.06;;;11.47;59.41
29197;BME280;62796;42.654;23.316;2022-10-22T00:21:05;95396.19;;;11.47;59.08
29197;BME280;62796;42.654;23.316;2022-10-22T00:23:31;95383.34;;;11.39;59.27
29197;BME280;62796;42.654;23.316;2022-10-22T00:25:56;95392.41;;;11.43;59.34
29197;BME280;62796;42.654;23.316;2022-10-22T00:28:22;95388.66;;;11.39;59.15
29197;BME280;62796;42.654;23.316;2022-10-22T00:30:54;95374.53;;;11.33;59.26
29197;BME280;62796;42.654;23.316;2022-10-22T00:33:20;95370.78;;;11.34;59.10
29197;BME280;62796;42.654;23.316;2022-10-22T00:35:46;95367.72;;;11.43;59.36
29197;BME280;62796;42.654;23.316;2022-10-22T00:38:11;95362.56;;;11.36;59.54
29197;BME280;62796;42.654;23.316;2022-10-22T00:40:36;95361.03;;;11.40;59.42
29197;BME280;62796;42.654;23.316;2022-10-22T00:43:02;95379.94;;;11.44;59.31
29197;BME280;62796;42.654;23.316;2022-10-22T00:45:28;95368.94;;;11.35;59.46
29197;BME280;62796;42.654;23.316;2022-10-22T00:52:48;95386.19;;;11.32;59.42
29197;BME280;62796;42.654;23.316;2022-10-22T00:55:14;95381.91;;;11.31;59.17
29197;BME280;62796;42.654;23.316;2022-10-22T00:57:40;95375.97;;;11.24;59.08
29197;BME280;62796;42.654;23.316;2022-10-22T01:00:06;95374.56;;;11.16;59.59
29197;BME280;62796;42.654;23.316;2022-10-22T01:02:31;95368.94;;;11.13;59.89
29197;BME280;62796;42.654;23.316;2022-10-22T01:04:57;95351.84;;;11.04;59.63
29197;BME280;62796;42.654;23.316;2022-10-22T01:07:23;95354.56;;;11.09;59.75
29197;BME280;62796;42.654;23.316;2022-10-22T01:10:23;95340.09;;;10.99;60.15
29197;BME280;62796;42.654;23.316;2022-10-22T01:18:46;95317.59;;;10.85;59.98
29197;BME280;62796;42.654;23.316;2022-10-22T01:29:16;95320.94;;;10.97;60.07
29197;BME280;62796;42.654;23.316;2022-10-22T01:31:46;95331.88;;;11.01;60.20
29197;BME280;62796;42.654;23.316;2022-10-22T01:34:16;95310.31;;;10.97;59.90
29197;BME280;62796;42.654;23.316;2022-10-22T01:36:43;95315.63;;;10.97;60.21
29197;BME280;62796;42.654;23.316;2022-10-22T01:39:11;95276.78;;;10.69;59.85
29197;BME280;62796;42.654;23.316;2022-10-22T01:41:39;95320.16;;;10.97;59.84
29197;BME280;62796;42.654;23.316;2022-10-22T01:44:05;95303.13;;;10.93;60.22
29197;BME280;62796;42.654;23.316;2022-10-22T01:46:31;95305.25;;;10.96;59.88
29197;BME280;62796;42.654;23.316;2022-10-22T01:49:16;95315.56;;;10.92;60.34
29197;BME280;62796;42.654;23.316;2022-10-22T01:54:35;95308.28;;;10.82;59.90
29197;BME280;62796;42.654;23.316;2022-10-22T01:59:43;95318.84;;;10.77;60.21
29197;BME280;62796;42.654;23.316;2022-10-22T02:02:20;95313.84;;;10.81;60.06
29197;BME280;62796;42.654;23.316;2022-10-22T02:04:59;95322.28;;;10.78;60.33
29197;BME280;62796;42.654;23.316;2022-10-22T02:07:31;95324.31;;;10.71;60.68
29197;BME280;62796;42.654;23.316;2022-10-22T02:09:59;95297.59;;;10.55;60.74
29197;BME280;62796;42.654;23.316;2022-10-22T02:12:27;95325.94;;;10.72;60.49
29197;BME280;62796;42.654;23.316;2022-10-22T02:14:54;95320.16;;;10.75;60.42
29197;BME280;62796;42.654;23.316;2022-10-22T02:17:21;95313.72;;;10.71;59.99
29197;BME280;62796;42.654;23.316;2022-10-22T02:19:51;95314.03;;;10.74;60.48
29197;BME280;62796;42.654;23.316;2022-10-22T02:22:18;95304.78;;;10.77;60.65
29197;BME280;62796;42.654;23.316;2022-10-22T02:24:44;95300.44;;;10.71;60.62
29197;BME280;62796;42.654;23.316;2022-10-22T02:27:11;95297.84;;;10.76;60.49
29197;BME280;62796;42.654;23.316;2022-10-22T02:29:48;95296.00;;;10.76;60.70
29197;BME280;62796;42.654;23.316;2022-10-22T02:32:19;95304.72;;;10.72;61.22
29197;BME280;62796;42.654;23.316;2022-10-22T02:34:46;95293.66;;;10.58;60.83
29197;BME280;62796;42.654;23.316;2022-10-22T02:37:13;95325.19;;;10.76;60.78
29197;BME280;62796;42.654;23.316;2022-10-22T02:39:40;95321.13;;;10.69;60.71
29197;BME280;62796;42.654;23.316;2022-10-22T02:42:05;95332.59;;;10.74;60.55
29197;BME280;62796;42.654;23.316;2022-10-22T02:44:32;95333.28;;;10.64;60.71
29197;BME280;62796;42.654;23.316;2022-10-22T02:46:58;95329.25;;;10.62;60.77
29197;BME280;62796;42.654;23.316;2022-10-22T02:49:24;95326.03;;;10.60;60.95
29197;BME280;62796;42.654;23.316;2022-10-22T02:51:49;95339.56;;;10.58;60.85
29197;BME280;62796;42.654;23.316;2022-10-22T02:54:14;95337.78;;;10.64;61.12
29197;BME280;62796;42.654;23.316;2022-10-22T02:56:40;95327.91;;;10.59;60.60
29197;BME280;62796;42.654;23.316;2022-10-22T02:59:05;95332.72;;;10.62;60.83
29197;BME280;62796;42.654;23.316;2022-10-22T03:01:31;95330.06;;;10.62;60.74
29197;BME280;62796;42.654;23.316;2022-10-22T03:03:56;95330.63;;;10.64;60.89
29197;BME280;62796;42.654;23.316;2022-10-22T03:06:21;95329.81;;;10.64;60.89
29197;BME280;62796;42.654;23.316;2022-10-22T03:08:47;95332.72;;;10.62;60.96
29197;BME280;62796;42.654;23.316;2022-10-22T03:11:12;95333.84;;;10.67;61.13
29197;BME280;62796;42.654;23.316;2022-10-22T03:13:38;95335.44;;;10.68;60.82
29197;BME280;62796;42.654;23.316;2022-10-22T03:16:03;95321.06;;;10.63;61.20
29197;BME280;62796;42.654;23.316;2022-10-22T03:18:29;95324.25;;;10.66;60.86
29197;BME280;62796;42.654;23.316;2022-10-22T03:21:06;95322.59;;;10.59;60.84
29197;BME280;62796;42.654;23.316;2022-10-22T03:23:34;95328.47;;;10.61;61.15
29197;BME280;62796;42.654;23.316;2022-10-22T03:26:00;95316.22;;;10.60;60.93
29197;BME280;62796;42.654;23.316;2022-10-22T03:28:26;95317.28;;;10.59;60.89
29197;BME280;62796;42.654;23.316;2022-10-22T03:30:51;95308.22;;;10.55;61.10
29197;BME280;62796;42.654;23.316;2022-10-22T03:33:17;95319.38;;;10.57;61.42
29197;BME280;62796;42.654;23.316;2022-10-22T03:35:44;95306.03;;;10.52;61.52
29197;BME280;62796;42.654;23.316;2022-10-22T03:38:10;95319.88;;;10.54;61.55
29197;BME280;62796;42.654;23.316;2022-10-22T03:40:36;95309.19;;;10.49;61.31
29197;BME280;62796;42.654;23.316;2022-10-22T03:43:02;95314.56;;;10.54;61.39
29197;BME280;62796;42.654;23.316;2022-10-22T03:45:27;95310.28;;;10.53;61.09
29197;BME280;62796;42.654;23.316;2022-10-22T03:47:53;95292.31;;;10.38;61.34
29197;BME280;62796;42.654;23.316;2022-10-22T03:50:18;95300.44;;;10.49;61.20
29197;BME280;62796;42.654;23.316;2022-10-22T03:52:43;95301.63;;;10.41;61.29
29197;BME280;62796;42.654;23.316;2022-10-22T03:55:09;95318.69;;;10.45;61.25
29197;BME280;62796;42.654;23.316;2022-10-22T03:57:35;95326.88;;;10.43;61.56
29197;BME280;62796;42.654;23.316;2022-10-22T04:00:00;95316.03;;;10.45;61.39
29197;BME280;62796;42.654;23.316;2022-10-22T04:02:26;95317.97;;;10.33;61.67
29197;BME280;62796;42.654;23.316;2022-10-22T04:04:51;95329.53;;;10.43;61.42
29197;BME280;62796;42.654;23.316;2022-10-22T04:07:17;95315.41;;;10.38;61.66
29197;BME280;62796;42.654;23.316;2022-10-22T04:09:42;95309.03;;;10.39;61.73
29197;BME280;62796;42.654;23.316;2022-10-22T04:12:08;95303.16;;;10.37;61.85
29197;BME280;62796;42.654;23.316;2022-10-22T04:14:33;95307.69;;;10.36;62.10
29197;BME280;62796;42.654;23.316;2022-10-22T04:16:59;95311.75;;;10.44;61.83
29197;BME280;62796;42.654;23.316;2022-10-22T04:19:24;95286.78;;;10.40;62.08
29197;BME280;62796;42.654;23.316;2022-10-22T04:21:50;95294.28;;;10.48;62.03
29197;BME280;62796;42.654;23.316;2022-10-22T04:24:15;95299.19;;;10.56;62.24
29197;BME280;62796;42.654;23.316;2022-10-22T04:26:41;95295.50;;;10.57;61.69
29197;BME280;62796;42.654;23.316;2022-10-22T04:29:07;95300.06;;;10.62;61.63
29197;BME280;62796;42.654;23.316;2022-10-22T04:31:32;95291.31;;;10.61;61.67
29197;BME280;62796;42.654;23.316;2022-10-22T04:33:59;95300.13;;;10.67;61.60
29197;BME280;62796;42.654;23.316;2022-10-22T04:36:25;95291.94;;;10.69;61.73
29197;BME280;62796;42.654;23.316;2022-10-22T04:38:57;95297.78;;;10.71;61.89
29197;BME280;62796;42.654;23.316;2022-10-22T04:41:25;95310.50;;;10.69;61.79
29197;BME280;62796;42.654;23.316;2022-10-22T04:43:52;95304.97;;;10.70;62.03
29197;BME280;62796;42.654;23.316;2022-10-22T04:46:18;95302.53;;;10.69;61.74
29197;BME280;62796;42.654;23.316;2022-10-22T04:48:45;95307.13;;;10.73;61.66
29197;BME280;62796;42.654;23.316;2022-10-22T04:51:13;95301.56;;;10.75;61.42
29197;BME280;62796;42.654;23.316;2022-10-22T04:53:39;95297.38;;;10.79;61.04
29197;BME280;62796;42.654;23.316;2022-10-22T04:56:22;95300.66;;;10.86;61.06
29197;BME280;62796;42.654;23.316;2022-10-22T04:58:55;95312.88;;;10.87;60.85
29197;BME280;62796;42.654;23.316;2022-10-22T05:01:23;95286.19;;;10.77;60.95
29197;BME280;62796;42.654;23.316;2022-10-22T05:03:50;95323.59;;;10.97;61.25
29197;BME280;62796;42.654;23.316;2022-10-22T05:06:16;95319.13;;;10.98;60.84
29197;BME280;62796;42.654;23.316;2022-10-22T05:08:42;95317.81;;;11.00;61.46
29197;BME280;62796;42.654;23.316;2022-10-22T05:11:15;95321.31;;;11.06;61.09
29197;BME280;62796;42.654;23.316;2022-10-22T05:13:41;95333.75;;;11.00;60.83
29197;BME280;62796;42.654;23.316;2022-10-22T05:16:07;95337.25;;;11.06;60.85
29197;BME280;62796;42.654;23.316;2022-10-22T05:18:34;95336.47;;;11.06;61.18
29197;BME280;62796;42.654;23.316;2022-10-22T05:21:00;95339.91;;;11.06;60.82
29197;BME280;62796;42.654;23.316;2022-10-22T05:23:26;95336.63;;;10.99;60.85
29197;BME280;62796;42.654;23.316;2022-10-22T05:25:52;95320.84;;;10.87;60.99
29197;BME280;62796;42.654;23.316;2022-10-22T05:28:17;95331.50;;;10.92;60.96
29197;BME280;62796;42.654;23.316;2022-10-22T05:30:52;95330.09;;;10.85;61.58
29197;BME280;62796;42.654;23.316;2022-10-22T05:33:17;95344.97;;;10.86;61.42
29197;BME280;62796;42.654;23.316;2022-10-22T05:35:43;95341.19;;;10.81;61.76
29197;BME280;62796;42.654;23.316;2022-10-22T05:38:08;95348.13;;;10.82;61.49
29197;BME280;62796;42.654;23.316;2022-10-22T05:40:33;95347.81;;;10.79;61.87
29197;BME280;62796;42.654;23.316;2022-10-22T05:42:59;95348.22;;;10.71;62.02
29197;BME280;62796;42.654;23.316;2022-10-22T05:45:24;95343.16;;;10.69;61.82
29197;BME280;62796;42.654;23.316;2022-10-22T05:47:50;95344.84;;;10.75;62.35
29197;BME280;62796;42.654;23.316;2022-10-22T05:50:15;95336.00;;;10.70;62.15
29197;BME280;62796;42.654;23.316;2022-10-22T05:52:40;95331.56;;;10.75;62.31
29197;BME280;62796;42.654;23.316;2022-10-22T05:55:06;95341.31;;;10.92;62.06
29197;BME280;62796;42.654;23.316;2022-10-22T05:57:31;95331.63;;;11.02;61.14
29197;BME280;62796;42.654;23.316;2022-10-22T05:59:57;95348.94;;;11.27;61.56
29197;BME280;62796;42.654;23.316;2022-10-22T06:02:22;95337.88;;;11.35;60.99
29197;BME280;62796;42.654;23.316;2022-10-22T06:04:48;95339.81;;;11.45;60.42
29197;BME280;62796;42.654;23.316;2022-10-22T06:07:14;95354.03;;;11.56;59.96
29197;BME280;62796;42.654;23.316;2022-10-22T06:09:40;95360.00;;;11.68;59.96
29197;BME280;62796;42.654;23.316;2022-10-22T06:12:05;95340.16;;;11.76;59.88
29197;BME280;62796;42.654;23.316;2022-10-22T06:14:35;95346.19;;;11.93;59.31
29197;BME280;62796;42.654;23.316;2022-10-22T06:17:00;95346.59;;;12.12;59.52
29197;BME280;62796;42.654;23.316;2022-10-22T06:19:26;95348.94;;;12.36;58.40
29197;BME280;62796;42.654;23.316;2022-10-22T06:21:51;95340.78;;;12.53;58.13
29197;BME280;62796;42.654;23.316;2022-10-22T06:24:17;95343.91;;;12.82;57.41
29197;BME280;62796;42.654;23.316;2022-10-22T06:26:42;95347.50;;;13.14;56.95
29197;BME280;62796;42.654;23.316;2022-10-22T06:29:08;95356.69;;;13.43;55.86
29197;BME280;62796;42.654;23.316;2022-10-22T06:31:34;95346.09;;;13.64;54.65
29197;BME280;62796;42.654;23.316;2022-10-22T06:34:09;95339.72;;;13.80;54.77
29197;BME280;62796;42.654;23.316;2022-10-22T06:36:35;95358.72;;;14.10;54.27
29197;BME280;62796;42.654;23.316;2022-10-22T06:39:01;95360.31;;;14.31;53.78
29197;BME280;62796;42.654;23.316;2022-10-22T06:41:26;95364.06;;;14.56;53.10
29197;BME280;62796;42.654;23.316;2022-10-22T06:43:52;95361.38;;;14.76;52.30
29197;BME280;62796;42.654;23.316;2022-10-22T06:46:20;95364.78;;;14.97;52.28
29197;BME280;62796;42.654;23.316;2022-10-22T06:48:57;95350.34;;;15.14;51.73
29197;BME280;62796;42.654;23.316;2022-10-22T06:51:23;95354.75;;;15.49;51.30
29197;BME280;62796;42.654;23.316;2022-10-22T06:53:49;95346.81;;;15.84;51.01
29197;BME280;62796;42.654;23.316;2022-10-22T06:56:17;95351.09;;;16.24;49.83
29197;BME280;62796;42.654;23.316;2022-10-22T06:58:46;95356.88;;;16.37;48.78
29197;BME280;62796;42.654;23.316;2022-10-22T07:01:13;95357.63;;;16.42;48.78
29197;BME280;62796;42.654;23.316;2022-10-22T07:03:40;95360.34;;;16.03;49.86
29197;BME280;62796;42.654;23.316;2022-10-22T07:06:09;95358.28;;;16.29;49.03
29197;BME280;62796;42.654;23.316;2022-10-22T07:08:35;95368.84;;;16.44;48.59
29197;BME280;62796;42.654;23.316;2022-10-22T07:13:34;95356.22;;;17.08;47.61
29197;BME280;62796;42.654;23.316;2022-10-22T07:16:00;95352.75;;;17.08;47.75
29197;BME280;62796;42.654;23.316;2022-10-22T07:18:26;95350.44;;;17.44;47.60
29197;BME280;62796;42.654;23.316;2022-10-22T07:20:52;95342.97;;;17.41;46.57
29197;BME280;62796;42.654;23.316;2022-10-22T07:23:17;95340.72;;;17.49;46.69
29197;BME280;62796;42.654;23.316;2022-10-22T07:25:42;95344.81;;;17.84;46.54
29197;BME280;62796;42.654;23.316;2022-10-22T07:28:08;95344.66;;;18.32;45.84
29197;BME280;62796;42.654;23.316;2022-10-22T07:30:35;95350.50;;;18.86;44.29
29197;BME280;62796;42.654;23.316;2022-10-22T07:33:01;95337.97;;;18.95;43.35
29197;BME280;62796;42.654;23.316;2022-10-22T07:35:26;95342.56;;;19.23;43.82
29197;BME280;62796;42.654;23.316;2022-10-22T07:37:52;95341.75;;;19.64;43.19
29197;BME280;62796;42.654;23.316;2022-10-22T07:40:17;95337.31;;;19.96;41.78
29197;BME280;62796;42.654;23.316;2022-10-22T07:42:42;95343.59;;;20.27;41.19
29197;BME280;62796;42.654;23.316;2022-10-22T07:45:08;95337.63;;;20.39;40.60
29197;BME280;62796;42.654;23.316;2022-10-22T07:47:34;95332.00;;;20.72;40.49
29197;BME280;62796;42.654;23.316;2022-10-22T07:49:59;95321.56;;;21.11;40.01
29197;BME280;62796;42.654;23.316;2022-10-22T07:52:25;95319.13;;;21.49;38.73
29197;BME280;62796;42.654;23.316;2022-10-22T07:54:51;95307.59;;;21.75;38.48
29197;BME280;62796;42.654;23.316;2022-10-22T07:57:16;95310.13;;;21.63;38.17
29197;BME280;62796;42.654;23.316;2022-10-22T07:59:41;95313.56;;;21.46;37.88
29197;BME280;62796;42.654;23.316;2022-10-22T08:02:08;95316.28;;;20.52;39.36
29197;BME280;62796;42.654;23.316;2022-10-22T08:04:34;95315.81;;;20.27;40.52
29197;BME280;62796;42.654;23.316;2022-10-22T08:07:00;95320.38;;;20.63;39.96
29197;BME280;62796;42.654;23.316;2022-10-22T08:09:25;95320.91;;;21.14;39.22
29197;BME280;62796;42.654;23.316;2022-10-22T08:11:51;95318.03;;;21.50;38.91
29197;BME280;62796;42.654;23.316;2022-10-22T08:14:16;95314.56;;;21.85;38.05
29197;BME280;62796;42.654;23.316;2022-10-22T08:16:42;95315.38;;;22.11;37.68
29197;BME280;62796;42.654;23.316;2022-10-22T08:19:07;95305.34;;;22.47;36.46
29197;BME280;62796;42.654;23.316;2022-10-22T08:21:32;95307.97;;;22.82;36.65
29197;BME280;62796;42.654;23.316;2022-10-22T08:23:58;95304.09;;;23.00;36.11
29197;BME280;62796;42.654;23.316;2022-10-22T08:26:23;95298.63;;;23.18;35.82
29197;BME280;62796;42.654;23.316;2022-10-22T08:28:49;95281.44;;;23.43;35.76
29197;BME280;62796;42.654;23.316;2022-10-22T08:31:14;95299.72;;;23.76;35.38
29197;BME280;62796;42.654;23.316;2022-10-22T08:33:40;95281.78;;;23.93;34.68
29197;BME280;62796;42.654;23.316;2022-10-22T08:36:06;95289.66;;;24.06;34.31
29197;BME280;62796;42.654;23.316;2022-10-22T08:38:32;95291.78;;;24.13;33.99
29197;BME280;62796;42.654;23.316;2022-10-22T08:41:19;95289.75;;;24.31;34.01
29197;BME280;62796;42.654;23.316;2022-10-22T08:46:32;95294.53;;;24.47;33.44
29197;BME280;62796;42.654;23.316;2022-10-22T08:49:04;95293.34;;;24.56;33.72
29197;BME280;62796;42.654;23.316;2022-10-22T08:51:34;95289.66;;;24.73;33.39
29197;BME280;62796;42.654;23.316;2022-10-22T08:54:18;95292.94;;;24.45;33.28
29197;BME280;62796;42.654;23.316;2022-10-22T09:03:01;95286.34;;;24.34;34.37
29197;BME280;62796;42.654;23.316;2022-10-22T09:05:52;95284.09;;;24.70;33.94
29197;BME280;62796;42.654;23.316;2022-10-22T09:08:21;95288.47;;;25.08;32.92
29197;BME280;62796;42.654;23.316;2022-10-22T09:10:56;95288.25;;;25.13;32.50
29197;BME280;62796;42.654;23.316;2022-10-22T09:13:23;95279.63;;;25.23;32.66
29197;BME280;62796;42.654;23.316;2022-10-22T09:15:54;95274.19;;;25.48;32.40
29197;BME280;62796;42.654;23.316;2022-10-22T09:24:12;95274.78;;;25.53;32.31
29197;BME280;62796;42.654;23.316;2022-10-22T09:26:40;95276.53;;;25.74;31.85
29197;BME280;62796;42.654;23.316;2022-10-22T09:29:06;95268.75;;;25.60;32.01
29197;BME280;62796;42.654;23.316;2022-10-22T09:31:32;95266.25;;;25.67;31.93
29197;BME280;62796;42.654;23.316;2022-10-22T09:33:59;95257.63;;;25.77;31.79
29197;BME280;62796;42.654;23.316;2022-10-22T09:36:30;95263.06;;;25.77;31.60
29197;BME280;62796;42.654;23.316;2022-10-22T09:38:56;95260.09;;;25.83;31.62
29197;BME280;62796;42.654;23.316;2022-10-22T09:41:27;95261.78;;;26.00;31.31
29197;BME280;62796;42.654;23.316;2022-10-22T09:43:54;95259.66;;;25.81;31.82
29197;BME280;62796;42.654;23.316;2022-10-22T09:46:28;95249.41;;;25.49;32.15
29197;BME280;62796;42.654;23.316;2022-10-22T09:49:01;95239.59;;;25.85;31.75
29197;BME280;62796;42.654;23.316;2022-10-22T09:54:22;95219.38;;;26.71;30.48
29197;BME280;62796;42.654;23.316;2022-10-22T09:56:56;95227.97;;;27.05;30.02
29197;BME280;62796;42.654;23.316;2022-10-22T09:59:32;95239.00;;;27.44;29.40
29197;BME280;62796;42.654;23.316;2022-10-22T10:02:15;95238.63;;;27.61;29.04
29197;BME280;62796;42.654;23.316;2022-10-22T10:04:47;95240.44;;;27.73;29.28
29197;BME280;62796;42.654;23.316;2022-10-22T10:07:32;95239.06;;;27.83;29.01
29197;BME280;62796;42.654;23.316;2022-10-22T10:09:58;95219.44;;;27.93;28.59
29197;BME280;62796;42.654;23.316;2022-10-22T10:18:44;95215.03;;;27.89;28.67
29197;BME280;62796;42.654;23.316;2022-10-22T10:23:40;95225.84;;;27.65;28.81
29197;BME280;62796;42.654;23.316;2022-10-22T10:26:27;95209.28;;;27.74;28.95
29197;BME280;62796;42.654;23.316;2022-10-22T10:31:33;95207.53;;;28.01;29.00
29197;BME280;62796;42.654;23.316;2022-10-22T10:42:45;95187.81;;;28.74;27.59
29197;BME280;62796;42.654;23.316;2022-10-22T11:10:41;95129.22;;;30.19;25.88
29197;BME280;62796;42.654;23.316;2022-10-22T11:13:51;95116.91;;;30.40;25.84
29197;BME280;62796;42.654;23.316;2022-10-22T11:16:38;95121.41;;;30.62;25.57
29197;BME280;62796;42.654;23.316;2022-10-22T11:21:52;95114.09;;;30.84;25.25
29197;BME280;62796;42.654;23.316;2022-10-22T11:24:45;95098.44;;;30.78;25.33
29197;BME280;62796;42.654;23.316;2022-10-22T11:27:23;95099.13;;;30.67;25.19
29197;BME280;62796;42.654;23.316;2022-10-22T11:30:00;95088.94;;;30.64;25.66
29197;BME280;62796;42.654;23.316;2022-10-22T11:32:27;95089.28;;;30.59;25.76
29197;BME280;62796;42.654;23.316;2022-10-22T11:34:57;95093.63;;;30.60;25.73
29197;BME280;62796;42.654;23.316;2022-10-22T11:37:25;95077.28;;;30.75;25.53
29197;BME280;62796;42.654;23.316;2022-10-22T11:39:57;95077.38;;;30.89;25.13
29197;BME280;62796;42.654;23.316;2022-10-22T11:43:24;95070.25;;;30.77;25.82
29197;BME280;62796;42.654;23.316;2022-10-22T11:52:53;95068.06;;;30.97;25.08
29197;BME280;62796;42.654;23.316;2022-10-22T11:55:46;95064.72;;;31.36;25.05
29197;BME280;62796;42.654;23.316;2022-10-22T11:58:39;95068.31;;;31.51;24.75
29197;BME280;62796;42.654;23.316;2022-10-22T12:11:19;95052.81;;;32.45;23.54
29197;BME280;62796;42.654;23.316;2022-10-22T12:16:35;95045.69;;;33.02;23.07
29197;BME280;62796;42.654;23.316;2022-10-22T12:19:28;95035.03;;;33.22;23.14
29197;BME280;62796;42.654;23.316;2022-10-22T12:22:01;95040.13;;;33.27;22.70
29197;BME280;62796;42.654;23.316;2022-10-22T12:24:44;95023.97;;;33.40;22.63
29197;BME280;62796;42.654;23.316;2022-10-22T12:27:32;95027.53;;;33.33;21.94
29197;BME280;62796;42.654;23.316;2022-10-22T12:30:00;95030.75;;;33.17;22.64
29197;BME280;62796;42.654;23.316;2022-10-22T12:32:35;95026.75;;;33.36;22.79
29197;BME280;62796;42.654;23.316;2022-10-22T12:35:07;95027.81;;;33.53;22.23
29197;BME280;62796;42.654;23.316;2022-10-22T12:37:36;95029.72;;;33.71;22.58
29197;BME280;62796;42.654;23.316;2022-10-22T12:40:18;95027.25;;;33.87;22.14
29197;BME280;62796;42.654;23.316;2022-10-22T12:42:59;95019.25;;;34.11;22.04
29197;BME280;62796;42.654;23.316;2022-10-22T12:45:27;95011.31;;;34.23;21.74
29197;BME280;62796;42.654;23.316;2022-10-22T12:48:01;95021.28;;;34.52;21.56
29197;BME280;62796;42.654;23.316;2022-10-22T12:50:40;95015.66;;;34.63;21.81
29197;BME280;62796;42.654;23.316;2022-10-22T12:53:13;95016.50;;;34.56;21.87
29197;BME280;62796;42.654;23.316;2022-10-22T12:55:41;95011.63;;;34.78;21.66
29197;BME280;62796;42.654;23.316;2022-10-22T12:58:59;95000.44;;;34.92;21.29
29197;BME280;62796;42.654;23.316;2022-10-22T13:00:59;95002.34;;;34.99;21.11
29197;BME280;62796;42.654;23.316;2022-10-22T13:03:32;95001.50;;;35.02;20.99
29197;BME280;62796;42.654;23.316;2022-10-22T13:06:32;94995.19;;;35.02;21.28
29197;BME280;62796;42.654;23.316;2022-10-22T13:11:41;94996.91;;;34.88;20.99
29197;BME280;62796;42.654;23.316;2022-10-22T13:14:34;94992.28;;;34.82;21.01
29197;BME280;62796;42.654;23.316;2022-10-22T13:17:16;94999.88;;;34.70;21.04
29197;BME280;62796;42.654;23.316;2022-10-22T13:22:32;94996.31;;;34.73;21.33
29197;BME280;62796;42.654;23.316;2022-10-22T13:25:17;94980.38;;;34.50;21.45
29197;BME280;62796;42.654;23.316;2022-10-22T13:27:45;94976.47;;;34.48;21.61
29197;BME280;62796;42.654;23.316;2022-10-22T13:30:18;94977.34;;;34.37;21.62
29197;BME280;62796;42.654;23.316;2022-10-22T13:32:49;94978.09;;;34.41;21.85
29197;BME280;62796;42.654;23.316;2022-10-22T13:35:16;94968.78;;;34.28;21.35
29197;BME280;62796;42.654;23.316;2022-10-22T13:37:42;94973.88;;;34.30;21.96
29197;BME280;62796;42.654;23.316;2022-10-22T13:40:12;94969.38;;;34.47;21.49
29197;BME280;62796;42.654;23.316;2022-10-22T13:42:38;94969.69;;;34.56;21.71
29197;BME280;62796;42.654;23.316;2022-10-22T13:45:04;94971.56;;;34.66;21.42
29197;BME280;62796;42.654;23.316;2022-10-22T13:47:30;94968.88;;;34.59;21.32
29197;BME280;62796;42.654;23.316;2022-10-22T13:49:59;94965.31;;;34.17;21.58
29197;BME280;62796;42.654;23.316;2022-10-22T13:52:46;94978.25;;;33.64;22.06
29197;BME280;62796;42.654;23.316;2022-10-22T13:55:25;94971.41;;;33.23;22.23
29197;BME280;62796;42.654;23.316;2022-10-22T13:57:55;94975.09;;;32.81;23.09
29197;BME280;62796;42.654;23.316;2022-10-22T14:00:22;94972.03;;;32.39;23.17
29197;BME280;62796;42.654;23.316;2022-10-22T14:02:51;94971.22;;;31.99;23.83
29197;BME280;62796;42.654;23.316;2022-10-22T14:05:17;94973.97;;;31.88;24.10
29197;BME280;62796;42.654;23.316;2022-10-22T14:07:43;94967.72;;;31.95;24.16
29197;BME280;62796;42.654;23.316;2022-10-22T14:10:27;94962.63;;;32.04;23.91
29197;BME280;62796;42.654;23.316;2022-10-22T14:12:52;94965.38;;;32.04;23.68
29197;BME280;62796;42.654;23.316;2022-10-22T14:15:20;94970.44;;;31.91;23.61
29197;BME280;62796;42.654;23.316;2022-10-22T14:17:51;94968.81;;;31.47;24.04
29197;BME280;62796;42.654;23.316;2022-10-22T14:20:21;94960.41;;;30.93;24.77
29197;BME280;62796;42.654;23.316;2022-10-22T14:22:49;94960.28;;;30.72;25.64
29197;BME280;62796;42.654;23.316;2022-10-22T14:25:16;94966.09;;;30.59;25.83
29197;BME280;62796;42.654;23.316;2022-10-22T14:27:42;94958.22;;;30.51;26.07
29197;BME280;62796;42.654;23.316;2022-10-22T14:30:08;94957.72;;;30.34;26.24
29197;BME280;62796;42.654;23.316;2022-10-22T14:32:37;94950.38;;;29.94;26.37
29197;BME280;62796;42.654;23.316;2022-10-22T14:35:03;94946.19;;;29.66;26.89
29197;BME280;62796;42.654;23.316;2022-10-22T14:37:28;94938.94;;;29.40;27.19
29197;BME280;62796;42.654;23.316;2022-10-22T14:39:54;94939.00;;;29.09;27.54
29197;BME280;62796;42.654;23.316;2022-10-22T14:42:26;94947.97;;;28.76;28.58
29197;BME280;62796;42.654;23.316;2022-10-22T14:44:52;94950.44;;;28.54;28.88
29197;BME280;62796;42.654;23.316;2022-10-22T14:47:17;94956.50;;;28.17;29.68
29197;BME280;62796;42.654;23.316;2022-10-22T14:49:43;94951.34;;;27.89;29.93
29197;BME280;62796;42.654;23.316;2022-10-22T14:52:08;94949.97;;;27.53;30.55
29197;BME280;62796;42.654;23.316;2022-10-22T14:54:34;94943.56;;;27.22;31.23
29197;BME280;62796;42.654;23.316;2022-10-22T14:57:03;94955.53;;;26.98;31.64
29197;BME280;62796;42.654;23.316;2022-10-22T14:59:29;94963.56;;;26.71;32.19